Tropical Cyclones
[Index]
Main Index Home Page Stock Weather Photos Extreme Storms Discussion Storm News and Storm Chasing Reports Tropical Cyclones / Hurricanes / Typhoons Weather Data and Links Wild Fires / Bushfires Weather Observation Techniques Weather Picture Catalogue Tornado Pictures and Reports Stock Video Footage and DVDs for sale
Season 2011-2012 Tropical Cyclone LUA Track Map
Season 2011-2012 Summaries: [BoM-AU] [JTWC-AU] [JTWC-SIO] [JTWC-SPAC] [JTWC-SH]
<<- Previous TC | JTWC 2011-2012 Season | Next TC ->>

click for intensity scale information  Lat/long Grid: Show Hide

 Date Labels: Show Hide

Joint Typhoon Warning Centre Cyclone Data

Name: LUA

11 Mar 2012 06:00 UTC to 17 Mar 2012 18:00 UTC

    date/time    lat    long     hPa   cat  kts
2012-03-11 06   19.0   113.4    1007         20          
2012-03-11 12   18.9   114.1    1007         20          
2012-03-11 18   18.8   114.7    1004         25          
2012-03-12 00   18.4   115.0    1004         25          
2012-03-12 06   18.4   115.2    1004         25          
2012-03-12 12   18.6   115.2    1000         30          
2012-03-12 18   18.6   115.1    1000         30          
2012-03-13 00   18.6   115.0    1000         30          
2012-03-13 06   18.6   114.6    1000         35          
2012-03-13 12   18.2   113.9     996         35          
2012-03-13 18   17.4   113.3     996         35          
2012-03-14 00   16.8   112.7     989    1    45          
2012-03-14 06   16.1   112.6     989    1    45          
2012-03-14 12   15.7   112.8     982    2    55          
2012-03-14 12   15.7   112.8     982    2    55          
2012-03-14 18   15.5   112.9     978    2    60          
2012-03-14 18   15.5   112.9     978    2    60          
2012-03-15 00   15.5   113.1     978    2    60          
2012-03-15 00   15.5   113.1     978    2    60          
2012-03-15 06   15.5   113.0     974    2    65          
2012-03-15 06   15.5   113.0     974    2    65          
2012-03-15 12   15.3   113.6     974    2    65          
2012-03-15 12   15.3   113.6     974    2    65          
2012-03-15 12   15.3   113.6     974    2    65          
2012-03-15 18   15.6   114.6     970    2    70          
2012-03-15 18   15.6   114.6     970    2    70          
2012-03-15 18   15.6   114.6     970    2    70          
2012-03-16 00   16.1   115.9     967    3    75          
2012-03-16 00   16.1   115.9     967    3    75          
2012-03-16 00   16.1   115.9     967    3    75          
2012-03-16 06   16.4   116.7     967    3    75          
2012-03-16 06   16.4   116.7     967    3    75          
2012-03-16 06   16.4   116.7     967    3    75          
2012-03-16 12   16.8   117.8     956    3    90          
2012-03-16 12   16.8   117.8     956    3    90          
2012-03-16 12   16.8   117.8     956    3    90          
2012-03-16 18   17.7   118.9     956    3    90          
2012-03-16 18   17.7   118.9     956    3    90          
2012-03-16 18   17.7   118.9     956    3    90          
2012-03-17 00   18.6   119.7     952    3    95          
2012-03-17 00   18.6   119.7     952    3    95          
2012-03-17 00   18.6   119.7     952    3    95          
2012-03-17 06   19.8   120.0     952    3    95          
2012-03-17 06   19.8   120.0     952    3    95          
2012-03-17 06   19.8   120.0     952    3    95          
2012-03-17 12   21.5   120.4     978    2    60          
2012-03-17 12   21.5   120.4     978    2    60          
2012-03-17 18   23.4   121.0     996         35          
Winds are 1-min average.

Tropical cyclone tracks developed by Michael Bath using data from the Joint Typhoon Warning Centre Best Tracks and Google Maps.


[Australian Severe Weather index] [Copyright Notice] [Email Contacts] [Search This Site] [Privacy Policy]
Document: tropical_cyclone_lua.htm Updated: 28 June 2017